Time;durP1;ratioP1;P1;durP2;ratioP2;P2;SDS_P1;SDS_P2;PMS_P1;PMS_P2;Temp;Humidity;BMP_temperature;BMP_pressure;BME280_temperature;BME280_humidity;BME280_pressure;Samples;Min_cycle;Max_cycle;Signal;HPM_P1;HPM_P2
2022/09/13 00:05:25;;;;;;;6.8;9.7;;;;;;;10;85.5;98680;;;;
2022/09/13 00:16:25;;;;;;;6.2;9.9;;;;;;;9.9;85.8;98680;;;;
2022/09/13 00:26:25;;;;;;;6.2;9.9;;;;;;;10;86.7;98670;;;;
2022/09/13 00:37:25;;;;;;;6.2;9.9;;;;;;;10.2;88.3;98670;;;;
2022/09/13 00:47:25;;;;;;;7;10.5;;;;;;;10.2;88.6;98660;;;;
2022/09/13 00:58:25;;;;;;;7;10.5;;;;;;;10.3;89.3;98660;;;;
2022/09/13 01:08:25;;;;;;;7;10.5;;;;;;;10.3;89.4;98650;;;;
2022/09/13 01:19:25;;;;;;;8.5;11.1;;;;;;;10.4;89.4;98640;;;;
2022/09/13 01:29:25;;;;;;;8.5;11.1;;;;;;;10.4;88.9;98640;;;;
2022/09/13 01:39:26;;;;;;;7.5;11.3;;;;;;;10.3;88.5;98650;;;;
2022/09/13 01:50:25;;;;;;;7.5;11.3;;;;;;;10.1;88.3;98660;;;;
2022/09/13 02:00:25;;;;;;;7.5;11.3;;;;;;;9.9;87.6;98650;;;;
2022/09/13 02:10:25;;;;;;;6.2;9.4;;;;;;;9.9;88.3;98640;;;;
2022/09/13 02:20:26;;;;;;;6.2;9.4;;;;;;;10;88.5;98630;;;;
2022/09/13 02:31:26;;;;;;;6.2;9.4;;;;;;;9.9;88.2;98620;;;;
2022/09/13 02:41:26;;;;;;;6;8.1;;;;;;;9.8;88;98620;;;;
2022/09/13 02:51:25;;;;;;;6;8.1;;;;;;;9.6;87.6;98620;;;;
2022/09/13 03:01:26;;;;;;;6;8.1;;;;;;;9.5;87.4;98610;;;;
2022/09/13 03:12:28;;;;;;;5.6;9;;;;;;;9.6;88.1;98590;;;;
2022/09/13 03:22:26;;;;;;;5.6;9;;;;;;;9.7;88.3;98580;;;;
2022/09/13 03:32:25;;;;;;;5.6;9;;;;;;;9.7;88.3;98570;;;;
2022/09/13 03:42:26;;;;;;;4.8;7.2;;;;;;;9.7;87.9;98570;;;;
2022/09/13 03:52:26;;;;;;;4.8;7.2;;;;;;;9.6;87.6;98560;;;;
2022/09/13 04:03:26;;;;;;;4.8;7.2;;;;;;;9.4;87;98560;;;;
2022/09/13 04:13:26;;;;;;;5.5;7.7;;;;;;;9.2;86.5;98560;;;;
2022/09/13 04:23:26;;;;;;;5.5;7.7;;;;;;;8.9;86.2;98550;;;;
2022/09/13 04:33:26;;;;;;;5.5;7.7;;;;;;;8.8;86.3;98550;;;;
2022/09/13 04:43:26;;;;;;;4.6;7.7;;;;;;;8.7;86.2;98560;;;;
2022/09/13 04:54:26;;;;;;;4.6;7.7;;;;;;;8.8;86.3;98560;;;;
2022/09/13 05:04:26;;;;;;;4.6;7.7;;;;;;;8.9;86.4;98550;;;;
2022/09/13 05:15:26;;;;;;;5;7.9;;;;;;;9;86.4;98550;;;;
2022/09/13 05:25:26;;;;;;;5;7.9;;;;;;;9.4;86.7;98560;;;;
2022/09/13 05:35:26;;;;;;;5;7.9;;;;;;;9.9;87.4;98550;;;;
2022/09/13 05:46:26;;;;;;;6.7;11;;;;;;;10.5;88.4;98560;;;;
2022/09/13 05:56:26;;;;;;;6.7;11;;;;;;;11;88.5;98570;;;;
2022/09/13 06:06:26;;;;;;;6.7;11;;;;;;;11.5;88.1;98570;;;;
2022/09/13 06:16:26;;;;;;;6.5;9.1;;;;;;;11.8;86.4;98570;;;;
2022/09/13 06:26:26;;;;;;;6.5;9.1;;;;;;;12.1;85.4;98570;;;;
2022/09/13 06:37:26;;;;;;;6.5;9.1;;;;;;;12.6;84.7;98570;;;;
2022/09/13 06:48:26;;;;;;;7;10.5;;;;;;;13.1;84.1;98570;;;;
2022/09/13 06:58:28;;;;;;;7;10.5;;;;;;;13.5;82.6;98570;;;;
2022/09/13 07:08:26;;;;;;;7;10.5;;;;;;;14;81.8;98580;;;;
2022/09/13 07:18:26;;;;;;;6;8.3;;;;;;;14.6;80.5;98570;;;;
2022/09/13 07:29:26;;;;;;;6;8.3;;;;;;;15.3;79.3;98560;;;;
2022/09/13 07:40:26;;;;;;;6.3;9.3;;;;;;;15.8;76.7;98550;;;;
2022/09/13 07:51:26;;;;;;;6.3;9.3;;;;;;;16.3;73.7;98560;;;;
2022/09/13 08:02:26;;;;;;;6.3;9.3;;;;;;;16.6;74;98550;;;;
2022/09/13 08:12:26;;;;;;;8.8;11.5;;;;;;;17;71.1;98550;;;;
2022/09/13 08:23:26;;;;;;;8.8;11.5;;;;;;;17.4;70.7;98540;;;;
2022/09/13 08:34:26;;;;;;;8.8;11.5;;;;;;;17.6;70.2;98530;;;;
2022/09/13 08:44:26;;;;;;;6.8;14.2;;;;;;;17.8;68.1;98520;;;;
2022/09/13 08:55:26;;;;;;;6.8;14.2;;;;;;;18;66.2;98520;;;;
2022/09/13 09:05:26;;;;;;;6.8;14.2;;;;;;;18.6;66.9;98510;;;;
2022/09/13 09:16:26;;;;;;;4.5;8.7;;;;;;;19.1;64.8;98500;;;;
2022/09/13 09:26:27;;;;;;;4.5;8.7;;;;;;;19.8;62;98490;;;;
2022/09/13 09:37:26;;;;;;;4.5;8.7;;;;;;;19.9;59.6;98480;;;;
2022/09/13 09:47:26;;;;;;;3.1;5.9;;;;;;;20.4;59.2;98470;;;;
2022/09/13 09:58:26;;;;;;;3.1;5.9;;;;;;;20.3;55.2;98460;;;;
2022/09/13 10:09:26;;;;;;;2.5;5.7;;;;;;;20.6;54.7;98450;;;;
2022/09/13 10:20:26;;;;;;;2.5;5.7;;;;;;;20.9;55.5;98440;;;;
2022/09/13 10:31:26;;;;;;;2.5;5.7;;;;;;;21.1;55.7;98440;;;;
2022/09/13 10:42:26;;;;;;;2.4;5.9;;;;;;;21.3;56.1;98430;;;;
2022/09/13 10:52:26;;;;;;;2.4;5.9;;;;;;;21.4;55.2;98410;;;;
2022/09/13 11:03:26;;;;;;;2.4;5.9;;;;;;;21.7;53.4;98410;;;;
2022/09/13 11:14:26;;;;;;;2.5;5;;;;;;;21.9;52;98400;;;;
2022/09/13 11:25:26;;;;;;;2.5;5;;;;;;;21.8;49.5;98390;;;;
2022/09/13 11:36:26;;;;;;;2.5;5;;;;;;;21.9;50.3;98370;;;;
2022/09/13 11:47:26;;;;;;;2.2;4.2;;;;;;;21.6;49.6;98370;;;;
2022/09/13 11:57:26;;;;;;;2.2;4.2;;;;;;;21.1;52.7;98350;;;;
2022/09/13 12:08:26;;;;;;;2.2;4.2;;;;;;;21.6;49.1;98330;;;;
2022/09/13 12:19:26;;;;;;;2.1;4.3;;;;;;;21.6;50;98300;;;;
2022/09/13 12:30:27;;;;;;;2.1;4.3;;;;;;;21.9;49.3;98280;;;;
2022/09/13 12:40:26;;;;;;;1.8;4.2;;;;;;;22.1;47.8;98260;;;;
2022/09/13 12:50:26;;;;;;;1.8;4.2;;;;;;;22.5;49.8;98250;;;;
2022/09/13 13:01:26;;;;;;;1.8;4.2;;;;;;;21.8;49.6;98250;;;;
2022/09/13 13:12:26;;;;;;;2.1;4.4;;;;;;;21.6;49.1;98250;;;;
2022/09/13 13:23:26;;;;;;;2.1;4.4;;;;;;;21.8;49.4;98240;;;;
2022/09/13 13:34:26;;;;;;;2.1;4.4;;;;;;;22.4;48.6;98220;;;;
2022/09/13 13:44:26;;;;;;;2.3;5;;;;;;;23.1;46.5;98220;;;;
2022/09/13 13:54:26;;;;;;;2.3;5;;;;;;;23.1;45.6;98210;;;;
2022/09/13 14:05:26;;;;;;;2.3;5;;;;;;;23.2;45.4;98200;;;;
2022/09/13 14:16:26;;;;;;;2.9;5.4;;;;;;;23.1;46.2;98180;;;;
2022/09/13 14:27:26;;;;;;;2.9;5.4;;;;;;;22.6;47.5;98180;;;;
2022/09/13 14:37:27;;;;;;;2.9;5.4;;;;;;;22.1;49.8;98170;;;;
2022/09/13 14:47:26;;;;;;;2.9;5.4;;;;;;;21.7;51.2;98160;;;;
2022/09/13 14:57:27;;;;;;;2.9;5.4;;;;;;;21.3;52.7;98160;;;;
2022/09/13 15:08:26;;;;;;;2.9;5.4;;;;;;;21.3;54.7;98150;;;;
2022/09/13 15:18:26;;;;;;;2.9;5.3;;;;;;;21.1;54.7;98160;;;;
2022/09/13 15:29:26;;;;;;;2.9;5.3;;;;;;;20.7;56.4;98160;;;;
2022/09/13 15:40:26;;;;;;;3.6;5.8;;;;;;;20.3;57.9;98150;;;;
2022/09/13 15:50:26;;;;;;;3.6;5.8;;;;;;;20;58.5;98150;;;;
2022/09/13 16:00:26;;;;;;;3.6;5.8;;;;;;;19.8;59.9;98150;;;;
2022/09/13 16:11:26;;;;;;;4.3;6.8;;;;;;;19.3;60.9;98140;;;;
2022/09/13 16:22:26;;;;;;;4.3;6.8;;;;;;;19;63.4;98140;;;;
2022/09/13 16:32:26;;;;;;;4.3;6.8;;;;;;;18.9;61.6;98140;;;;
2022/09/13 16:43:26;;;;;;;3.8;5.8;;;;;;;18.7;61.5;98150;;;;
2022/09/13 16:54:26;;;;;;;3.8;5.8;;;;;;;18.5;62.9;98150;;;;
2022/09/13 17:05:26;;;;;;;3.8;5.8;;;;;;;18.3;64.7;98150;;;;
2022/09/13 17:15:26;;;;;;;4.5;6.7;;;;;;;18;67.3;98140;;;;
2022/09/13 17:26:26;;;;;;;4.5;6.7;;;;;;;17.9;66.1;98150;;;;
2022/09/13 17:37:26;;;;;;;4.5;6.7;;;;;;;17.8;67.1;98140;;;;
2022/09/13 17:47:26;;;;;;;5.2;11.2;;;;;;;17.7;68;98140;;;;
2022/09/13 17:57:27;;;;;;;5.2;11.2;;;;;;;17.7;68.3;98130;;;;
2022/09/13 18:08:26;;;;;;;5.2;11.2;;;;;;;17.7;68.8;98130;;;;
2022/09/13 18:18:26;;;;;;;5.9;8.3;;;;;;;17.7;68.4;98130;;;;
2022/09/13 18:29:27;;;;;;;5.9;8.3;;;;;;;17.6;68;98130;;;;
2022/09/13 18:39:26;;;;;;;5.4;6.7;;;;;;;17.4;68.2;98120;;;;
2022/09/13 18:49:26;;;;;;;5.4;6.7;;;;;;;17.2;68.4;98130;;;;
2022/09/13 19:00:27;;;;;;;5.4;6.7;;;;;;;17;68.4;98110;;;;
2022/09/13 19:10:27;;;;;;;6.1;9.4;;;;;;;16.8;69.3;98110;;;;
2022/09/13 19:20:27;;;;;;;6.1;9.4;;;;;;;16.7;69.5;98090;;;;
2022/09/13 19:31:26;;;;;;;6.1;9.4;;;;;;;16.6;69.4;98080;;;;
2022/09/13 19:42:26;;;;;;;6;8.9;;;;;;;16.6;69.3;98080;;;;
2022/09/13 19:53:26;;;;;;;6;8.9;;;;;;;16.5;69.5;98070;;;;
2022/09/13 20:03:26;;;;;;;6;8.9;;;;;;;16.7;69.3;98070;;;;
2022/09/13 20:14:26;;;;;;;5.8;11.6;;;;;;;16.8;68.9;98070;;;;
2022/09/13 20:25:26;;;;;;;5.8;11.6;;;;;;;16.8;69;98060;;;;
2022/09/13 20:35:28;;;;;;;5.8;11.6;;;;;;;16.8;69.1;98070;;;;
2022/09/13 20:45:26;;;;;;;4.7;8.5;;;;;;;16.7;69.2;98050;;;;
2022/09/13 20:56:27;;;;;;;4.7;8.5;;;;;;;16.6;69.4;98060;;;;
2022/09/13 21:18:26;;;;;;;4.3;8;;;;;;;16.6;69.5;98050;;;;
2022/09/13 21:29:26;;;;;;;4.3;8;;;;;;;16.7;69.2;98060;;;;
2022/09/13 21:39:28;;;;;;;3.4;7.8;;;;;;;16.7;69.8;98060;;;;
2022/09/13 21:49:26;;;;;;;3.4;7.8;;;;;;;16.7;69.5;98050;;;;
2022/09/13 21:59:26;;;;;;;3.4;7.8;;;;;;;16.8;69.6;98040;;;;
2022/09/13 22:10:26;;;;;;;3.4;5.5;;;;;;;16.7;69.6;98040;;;;
2022/09/13 22:21:26;;;;;;;3.4;5.5;;;;;;;16.8;69.6;98020;;;;
2022/09/13 22:32:26;;;;;;;3.4;5.5;;;;;;;16.8;69.5;98010;;;;
2022/09/13 22:42:26;;;;;;;3.7;5.8;;;;;;;17;68.9;98010;;;;
2022/09/13 22:53:26;;;;;;;3.7;5.8;;;;;;;17;69;98010;;;;
2022/09/13 23:03:26;;;;;;;3.7;5.8;;;;;;;17;69;98010;;;;
2022/09/13 23:13:26;;;;;;;3.2;5.8;;;;;;;16.9;69.1;98010;;;;
2022/09/13 23:23:26;;;;;;;3.2;5.8;;;;;;;16.7;69.3;98000;;;;
2022/09/13 23:34:26;;;;;;;3.2;5.8;;;;;;;16.5;70;98000;;;;
2022/09/13 23:44:27;;;;;;;2.9;5.2;;;;;;;16.3;70.7;98000;;;;
2022/09/13 23:55:26;;;;;;;2.9;5.2;;;;;;;16.3;70.9;97990;;;;
